createdAt,value
2017-12-22T00:02:14.738Z,68.26
2017-12-22T00:04:43.024Z,54.28
2017-12-22T00:07:11.317Z,58.84
2017-12-22T00:09:39.562Z,54.46
2017-12-22T00:12:07.807Z,59.88
2017-12-22T00:14:36.119Z,50.96
2017-12-22T00:17:04.365Z,51.86
2017-12-22T00:19:32.637Z,56.54
2017-12-22T00:22:02.286Z,51.82
2017-12-22T00:24:30.551Z,48.80
2017-12-22T00:26:58.826Z,46.72
2017-12-22T00:29:27.102Z,45.72
2017-12-22T00:31:55.383Z,48.64
2017-12-22T00:34:23.618Z,49.34
2017-12-22T00:36:51.909Z,49.98
2017-12-22T00:39:20.166Z,42.70
2017-12-22T00:41:48.411Z,42.16
2017-12-22T00:44:16.690Z,35.36
2017-12-22T00:46:44.170Z,40.50
2017-12-22T00:49:12.450Z,36.24
2017-12-22T00:51:40.695Z,48.52
2017-12-22T00:54:08.978Z,44.98
2017-12-22T00:56:37.237Z,35.66
2017-12-22T00:59:05.482Z,34.50
2017-12-22T01:01:33.755Z,42.70
2017-12-22T01:04:03.314Z,48.82
2017-12-22T01:06:32.461Z,42.38
2017-12-22T01:09:01.469Z,47.76
2017-12-22T01:11:29.746Z,51.82
2017-12-22T01:13:57.981Z,52.72
2017-12-22T01:16:31.873Z,46.32
2017-12-22T01:19:05.690Z,48.90
2017-12-22T01:21:33.965Z,48.14
2017-12-22T01:24:04.073Z,65.10
2017-12-22T01:26:33.529Z,62.78
2017-12-22T01:29:03.951Z,41.64
2017-12-22T01:31:33.613Z,52.26
2017-12-22T01:34:02.853Z,67.32
2017-12-22T01:36:32.137Z,42.92
2017-12-22T01:39:01.803Z,69.72
2017-12-22T01:41:30.066Z,66.96
2017-12-22T01:43:58.339Z,51.64
2017-12-22T01:46:26.609Z,69.58
2017-12-22T01:48:54.850Z,117.48
2017-12-22T01:51:23.131Z,57.12
2017-12-22T01:53:51.369Z,58.42
2017-12-22T01:56:19.641Z,83.06
2017-12-22T01:58:47.885Z,55.44
2017-12-22T02:01:16.155Z,37.44
2017-12-22T02:03:44.401Z,49.16
2017-12-22T02:06:12.681Z,49.92
2017-12-22T02:08:40.953Z,44.14
2017-12-22T02:11:09.205Z,54.34
2017-12-22T02:13:37.478Z,56.46
2017-12-22T02:16:05.725Z,44.72
2017-12-22T02:18:34.004Z,63.56
2017-12-22T02:21:08.201Z,48.86
2017-12-22T02:23:36.475Z,63.62
2017-12-22T02:26:04.754Z,79.80
2017-12-22T02:28:32.993Z,46.92
2017-12-22T02:31:01.270Z,74.86
2017-12-22T02:33:29.518Z,41.68
2017-12-22T02:35:57.770Z,150.06
2017-12-22T02:38:26.059Z,80.66
2017-12-22T02:40:54.302Z,107.60
2017-12-22T02:43:21.793Z,55.30
2017-12-22T02:45:49.302Z,46.82
2017-12-22T02:48:17.596Z,41.36
2017-12-22T02:50:45.872Z,74.22
2017-12-22T02:53:14.155Z,50.26
2017-12-22T02:55:42.425Z,52.88
2017-12-22T02:58:10.671Z,45.14
2017-12-22T03:00:38.966Z,37.50
2017-12-22T03:03:07.218Z,36.88
2017-12-22T03:05:35.471Z,50.56
2017-12-22T03:08:03.751Z,34.68
2017-12-22T03:10:33.965Z,27.88
2017-12-22T03:13:02.968Z,31.60
2017-12-22T03:15:31.643Z,35.96
2017-12-22T03:17:59.905Z,32.82
2017-12-22T03:20:28.178Z,24.88
2017-12-22T03:22:56.422Z,27.30
2017-12-22T03:25:24.674Z,24.44
2017-12-22T03:27:52.938Z,28.52
2017-12-22T03:30:21.215Z,29.86
2017-12-22T03:32:49.466Z,25.50
2017-12-22T03:35:16.978Z,27.12
2017-12-22T03:37:45.226Z,26.50
2017-12-22T03:40:15.479Z,20.90
2017-12-22T03:42:43.725Z,19.44
2017-12-22T03:45:11.970Z,20.86
2017-12-22T03:47:40.238Z,23.76
2017-12-22T03:50:11.529Z,21.46
2017-12-22T03:52:39.803Z,37.82
2017-12-22T03:55:08.050Z,20.86
2017-12-22T03:57:36.356Z,19.98
2017-12-22T04:00:07.725Z,22.18
2017-12-22T04:02:36.002Z,21.46
2017-12-22T04:05:04.292Z,20.32
2017-12-22T04:07:32.556Z,20.64
2017-12-22T04:10:03.022Z,25.26
2017-12-22T04:12:31.283Z,23.76
2017-12-22T04:14:59.530Z,17.20
2017-12-22T04:17:27.806Z,17.70
2017-12-22T04:19:56.078Z,19.14
2017-12-22T04:22:24.326Z,15.76
2017-12-22T04:24:52.612Z,20.40
2017-12-22T04:27:20.891Z,18.96
2017-12-22T04:29:49.136Z,14.06
2017-12-22T04:32:17.414Z,17.22
2017-12-22T04:34:45.653Z,15.64
2017-12-22T04:37:13.923Z,16.62
2017-12-22T04:39:41.442Z,22.68
2017-12-22T04:42:09.692Z,18.00
2017-12-22T04:44:37.938Z,20.50
2017-12-22T04:47:06.205Z,16.24
2017-12-22T04:49:34.451Z,17.30
2017-12-22T04:52:02.726Z,15.64
2017-12-22T04:54:32.578Z,19.82
2017-12-22T04:57:01.310Z,13.72
2017-12-22T04:59:29.555Z,13.18
2017-12-22T05:01:57.834Z,11.68
2017-12-22T05:04:26.084Z,12.80
2017-12-22T05:06:54.373Z,15.50
2017-12-22T05:09:22.650Z,13.12
2017-12-22T05:11:50.895Z,9.94
2017-12-22T05:14:19.161Z,17.34
2017-12-22T05:16:47.401Z,14.52
2017-12-22T05:19:15.682Z,11.50
2017-12-22T05:21:43.927Z,14.98
2017-12-22T05:24:12.176Z,14.16
2017-12-22T05:26:40.454Z,12.72
2017-12-22T05:29:08.738Z,19.16
2017-12-22T05:31:36.978Z,16.72
2017-12-22T05:34:05.228Z,11.58
2017-12-22T05:36:32.754Z,10.04
2017-12-22T05:39:02.128Z,13.56
2017-12-22T05:41:31.136Z,12.64
2017-12-22T05:43:59.397Z,11.04
2017-12-22T05:46:27.672Z,11.86
2017-12-22T05:48:55.905Z,14.44
2017-12-22T05:51:24.146Z,10.88
2017-12-22T05:53:52.418Z,9.72
2017-12-22T05:56:20.668Z,8.30
2017-12-22T05:58:48.942Z,14.12
2017-12-22T06:01:17.231Z,9.18
2017-12-22T06:03:45.516Z,8.24
2017-12-22T06:06:13.800Z,11.86
2017-12-22T06:08:42.091Z,11.28
2017-12-22T06:11:10.380Z,10.38
2017-12-22T06:13:38.635Z,12.52
2017-12-22T06:16:06.911Z,11.02
2017-12-22T06:18:35.154Z,10.96
2017-12-22T06:21:03.425Z,10.78
2017-12-22T06:23:32.879Z,11.20
2017-12-22T06:26:02.168Z,12.56
2017-12-22T06:28:30.420Z,14.94
2017-12-22T06:30:58.673Z,12.06
2017-12-22T06:33:26.970Z,10.62
2017-12-22T06:35:55.216Z,8.80
2017-12-22T06:38:23.457Z,9.54
2017-12-22T06:40:51.730Z,10.92
2017-12-22T06:43:19.976Z,15.34
2017-12-22T06:45:48.271Z,14.86
2017-12-22T06:48:16.516Z,15.04
2017-12-22T06:50:44.769Z,21.52
2017-12-22T06:53:13.039Z,10.16
2017-12-22T06:55:41.285Z,13.12
2017-12-22T06:58:09.572Z,15.02
2017-12-22T07:00:37.819Z,16.28
2017-12-22T07:03:06.058Z,14.00
2017-12-22T07:05:34.352Z,16.94
2017-12-22T07:08:02.599Z,10.74
2017-12-22T07:10:36.735Z,10.48
2017-12-22T07:13:04.992Z,10.58
2017-12-22T07:15:33.244Z,11.80
2017-12-22T07:18:02.886Z,12.30
2017-12-22T07:20:31.966Z,11.10
2017-12-22T07:23:01.072Z,10.50
2017-12-22T07:25:29.315Z,9.62
2017-12-22T07:27:57.604Z,10.52
2017-12-22T07:30:25.930Z,11.74
2017-12-22T07:32:54.138Z,10.16
2017-12-22T07:35:22.416Z,12.72
2017-12-22T07:37:50.676Z,10.32
2017-12-22T07:40:18.980Z,11.28
2017-12-22T07:42:47.216Z,8.84
2017-12-22T07:45:15.457Z,7.46
2017-12-22T07:47:43.738Z,12.38
2017-12-22T07:50:11.989Z,9.14
2017-12-22T07:52:40.244Z,12.04
2017-12-22T07:55:08.573Z,10.68
2017-12-22T07:57:36.808Z,9.66
2017-12-22T08:00:08.682Z,10.08
2017-12-22T08:02:36.923Z,9.60
2017-12-22T08:05:05.202Z,11.02
2017-12-22T08:07:33.442Z,8.72
2017-12-22T08:10:03.683Z,10.50
2017-12-22T08:12:32.688Z,9.98
2017-12-22T08:15:00.980Z,15.02
2017-12-22T08:17:29.682Z,8.46
2017-12-22T08:19:57.960Z,7.98
2017-12-22T08:22:26.200Z,12.28
2017-12-22T08:24:54.479Z,11.92
2017-12-22T08:27:22.734Z,12.80
2017-12-22T08:29:51.022Z,12.30
2017-12-22T08:32:19.278Z,10.10
2017-12-22T08:34:47.537Z,14.80
2017-12-22T08:37:15.802Z,17.64
2017-12-22T08:39:44.062Z,18.42
2017-12-22T08:42:12.342Z,19.96
2017-12-22T08:44:40.601Z,18.08
2017-12-22T08:47:08.856Z,13.54
2017-12-22T08:49:37.129Z,18.70
2017-12-22T08:52:05.391Z,15.56
2017-12-22T08:54:33.670Z,21.56
2017-12-22T08:57:02.711Z,12.24
2017-12-22T08:59:30.981Z,12.96
2017-12-22T09:01:59.236Z,12.04
2017-12-22T09:04:27.502Z,13.28
2017-12-22T09:06:55.777Z,16.96
2017-12-22T09:09:24.064Z,17.02
2017-12-22T09:11:52.343Z,12.24
2017-12-22T09:14:20.617Z,13.10
2017-12-22T09:16:48.858Z,14.88
2017-12-22T09:19:17.101Z,11.96
2017-12-22T09:21:45.379Z,11.66
2017-12-22T09:24:13.653Z,14.86
2017-12-22T09:26:41.898Z,12.72
2017-12-22T09:29:10.175Z,12.78
2017-12-22T09:31:38.466Z,13.62
2017-12-22T09:34:06.719Z,15.42
2017-12-22T09:36:34.990Z,16.60
2017-12-22T09:39:04.855Z,17.12
2017-12-22T09:41:34.494Z,13.40
2017-12-22T09:44:03.575Z,15.00
2017-12-22T09:46:33.208Z,13.44
2017-12-22T09:49:01.515Z,11.62
2017-12-22T09:51:29.776Z,12.56
2017-12-22T09:53:58.060Z,13.00
2017-12-22T09:56:26.334Z,10.24
2017-12-22T09:58:54.570Z,11.08
2017-12-22T10:01:22.830Z,13.04
2017-12-22T10:03:51.073Z,13.36
2017-12-22T10:06:19.363Z,11.98
2017-12-22T10:08:47.652Z,13.76
2017-12-22T10:11:15.907Z,12.78
2017-12-22T10:13:44.156Z,11.46
2017-12-22T10:16:12.435Z,15.00
2017-12-22T10:18:40.666Z,13.54
2017-12-22T10:21:08.942Z,12.30
2017-12-22T10:23:37.176Z,13.54
2017-12-22T10:26:05.428Z,13.36
2017-12-22T10:28:33.708Z,9.70
2017-12-22T10:31:02.835Z,14.10
2017-12-22T10:33:31.838Z,14.46
2017-12-22T10:36:00.114Z,12.22
2017-12-22T10:38:28.368Z,12.72
2017-12-22T10:40:56.743Z,12.10
2017-12-22T10:43:24.996Z,10.06
2017-12-22T10:45:53.238Z,10.86
2017-12-22T10:48:21.527Z,14.06
2017-12-22T10:50:50.606Z,10.18
2017-12-22T10:53:18.860Z,11.14
2017-12-22T10:55:47.138Z,10.76
2017-12-22T10:58:15.379Z,9.22
2017-12-22T11:00:43.646Z,8.48
2017-12-22T11:03:11.891Z,8.68
2017-12-22T11:05:40.168Z,8.18
2017-12-22T11:08:08.419Z,10.88
2017-12-22T11:10:36.696Z,11.28
2017-12-22T11:13:04.980Z,13.22
2017-12-22T11:15:39.287Z,12.12
2017-12-22T11:18:07.557Z,12.70
2017-12-22T11:20:36.735Z,11.74
2017-12-22T11:23:04.992Z,11.70
2017-12-22T11:25:39.526Z,10.32
2017-12-22T11:28:07.775Z,12.92
2017-12-22T11:30:36.027Z,12.06
2017-12-22T11:33:04.285Z,18.78
2017-12-22T11:35:33.612Z,17.90
2017-12-22T11:38:03.079Z,21.18
2017-12-22T11:40:32.231Z,29.94
2017-12-22T11:43:00.483Z,29.40
2017-12-22T11:45:28.773Z,34.10
2017-12-22T11:47:56.242Z,40.66
2017-12-22T11:50:24.497Z,30.98
2017-12-22T11:52:52.761Z,29.50
2017-12-22T11:55:21.046Z,41.74
2017-12-22T11:57:49.326Z,38.38
2017-12-22T12:00:17.584Z,46.22
2017-12-22T12:02:45.863Z,37.30
2017-12-22T12:05:14.111Z,43.28
2017-12-22T12:07:42.394Z,44.56
2017-12-22T12:10:10.637Z,42.76
2017-12-22T12:12:38.890Z,32.70
2017-12-22T12:15:10.313Z,42.76
2017-12-22T12:17:38.567Z,29.90
2017-12-22T12:20:07.706Z,30.86
2017-12-22T12:22:35.985Z,34.72
2017-12-22T12:25:03.467Z,30.00
2017-12-22T12:27:32.806Z,29.98
2017-12-22T12:30:02.975Z,26.22
2017-12-22T12:32:31.932Z,25.54
2017-12-22T12:35:00.178Z,25.06
2017-12-22T12:37:28.441Z,25.26
2017-12-22T12:39:56.687Z,21.76
2017-12-22T12:42:24.970Z,20.20
2017-12-22T12:44:53.218Z,28.30
2017-12-22T12:47:21.494Z,24.24
2017-12-22T12:49:49.778Z,26.20
2017-12-22T12:52:18.038Z,22.04
2017-12-22T12:54:47.331Z,25.88
2017-12-22T12:57:15.598Z,31.56
2017-12-22T12:59:43.860Z,24.02
2017-12-22T13:02:12.156Z,24.92
2017-12-22T13:04:40.437Z,27.94
2017-12-22T13:07:08.700Z,23.14
2017-12-22T13:09:37.916Z,21.48
2017-12-22T13:12:06.207Z,26.22
2017-12-22T13:14:34.475Z,20.18
2017-12-22T13:17:03.947Z,21.06
2017-12-22T13:19:34.226Z,25.68
2017-12-22T13:22:03.196Z,24.80
2017-12-22T13:24:32.466Z,18.64
2017-12-22T13:27:00.755Z,21.36
2017-12-22T13:29:29.000Z,20.58
2017-12-22T13:31:57.301Z,21.50
2017-12-22T13:34:30.374Z,23.72
2017-12-22T13:36:58.664Z,25.72
2017-12-22T13:39:30.561Z,20.96
2017-12-22T13:41:58.852Z,23.72
2017-12-22T13:44:27.102Z,25.60
2017-12-22T13:46:55.347Z,28.60
2017-12-22T13:49:24.551Z,22.48
2017-12-22T13:51:52.812Z,22.00
2017-12-22T13:54:22.083Z,26.24
2017-12-22T13:56:49.562Z,26.12
2017-12-22T13:59:22.998Z,19.68
2017-12-22T14:01:51.267Z,24.22
2017-12-22T14:04:19.514Z,19.88
2017-12-22T14:06:47.806Z,26.66
2017-12-22T14:09:16.099Z,24.68
2017-12-22T14:11:45.322Z,55.24
2017-12-22T14:14:13.598Z,25.70
2017-12-22T14:16:42.817Z,25.70
2017-12-22T14:19:11.094Z,38.70
2017-12-22T14:21:39.470Z,27.70
2017-12-22T14:24:07.726Z,21.96
2017-12-22T14:26:35.974Z,21.58
2017-12-22T14:29:03.497Z,26.28
2017-12-22T14:31:33.104Z,24.14
2017-12-22T14:34:01.428Z,22.00
2017-12-22T14:36:29.696Z,19.66
2017-12-22T14:38:57.952Z,23.66
2017-12-22T14:41:26.231Z,20.86
2017-12-22T14:43:54.491Z,22.42
2017-12-22T14:46:22.762Z,24.90
2017-12-22T14:48:51.042Z,34.88
2017-12-22T14:51:19.333Z,23.04
2017-12-22T14:53:47.588Z,26.64
2017-12-22T14:56:15.834Z,28.64
2017-12-22T14:58:44.122Z,30.58
2017-12-22T15:01:15.675Z,31.78
2017-12-22T15:03:43.962Z,32.52
2017-12-22T15:06:12.242Z,32.44
2017-12-22T15:08:40.494Z,31.02
2017-12-22T15:11:08.770Z,33.06
2017-12-22T15:13:37.019Z,33.52
2017-12-22T15:16:05.289Z,35.76
2017-12-22T15:18:33.583Z,37.32
2017-12-22T15:21:02.855Z,33.58
2017-12-22T15:23:31.811Z,45.92
2017-12-22T15:26:00.095Z,35.48
2017-12-22T15:28:28.333Z,32.46
2017-12-22T15:30:56.610Z,33.88
2017-12-22T15:33:24.103Z,39.72
2017-12-22T15:35:52.390Z,40.10
2017-12-22T15:38:20.630Z,40.84
2017-12-22T15:40:48.921Z,44.66
2017-12-22T15:43:17.308Z,40.00
2017-12-22T15:45:50.234Z,45.14
2017-12-22T15:48:18.514Z,43.56
2017-12-22T15:50:50.279Z,37.74
2017-12-22T15:53:18.577Z,48.74
2017-12-22T15:55:46.878Z,41.62
2017-12-22T15:58:15.113Z,40.52
2017-12-22T16:00:44.394Z,38.92
2017-12-22T16:03:12.633Z,41.38
2017-12-22T16:05:42.830Z,39.34
2017-12-22T16:08:11.111Z,37.14
2017-12-22T16:10:42.728Z,35.46
2017-12-22T16:13:11.057Z,40.46
2017-12-22T16:15:39.298Z,32.82
2017-12-22T16:18:07.637Z,37.04
2017-12-22T16:20:35.877Z,34.74
2017-12-22T16:23:04.117Z,36.16
2017-12-22T16:25:32.388Z,48.62
2017-12-22T16:27:59.891Z,36.32
2017-12-22T16:30:28.238Z,34.72
2017-12-22T16:32:56.477Z,40.66
2017-12-22T16:35:24.717Z,40.52
2017-12-22T16:37:53.000Z,37.36
2017-12-22T16:40:21.332Z,34.14
2017-12-22T16:42:49.574Z,29.52
2017-12-22T16:45:17.823Z,27.32
2017-12-22T16:47:46.157Z,31.58
2017-12-22T16:50:14.444Z,31.70
2017-12-22T16:52:42.700Z,34.54
2017-12-22T16:55:10.971Z,30.84
2017-12-22T16:57:39.316Z,33.78
2017-12-22T17:00:07.576Z,30.82
2017-12-22T17:02:35.875Z,31.90
2017-12-22T17:05:04.151Z,31.18
2017-12-22T17:07:32.757Z,26.72
2017-12-22T17:10:04.596Z,24.94
2017-12-22T17:12:34.318Z,23.54
2017-12-22T17:15:04.094Z,23.14
2017-12-22T17:17:32.400Z,22.48
2017-12-22T17:20:02.619Z,21.78
2017-12-22T17:22:30.885Z,25.36
2017-12-22T17:24:59.221Z,41.30
2017-12-22T17:27:27.518Z,22.92
2017-12-22T17:29:55.799Z,24.64
2017-12-22T17:32:24.037Z,31.00
2017-12-22T17:34:52.376Z,64.86
2017-12-22T17:37:20.659Z,22.68
2017-12-22T17:39:48.983Z,67.68
2017-12-22T17:42:17.293Z,26.28
2017-12-22T17:44:45.652Z,38.60
2017-12-22T17:47:13.898Z,35.06
2017-12-22T17:49:42.199Z,36.28
2017-12-22T17:52:10.529Z,29.54
2017-12-22T17:54:38.863Z,43.66
2017-12-22T17:57:07.115Z,37.24
2017-12-22T17:59:35.456Z,26.78
2017-12-22T18:02:03.763Z,21.62
2017-12-22T18:04:32.913Z,23.34
2017-12-22T18:07:01.934Z,28.14
2017-12-22T18:09:30.215Z,21.00
2017-12-22T18:11:58.482Z,19.06
2017-12-22T18:14:26.730Z,19.18
2017-12-22T18:16:55.014Z,23.50
2017-12-22T18:19:23.305Z,36.74
2017-12-22T18:21:51.591Z,39.14
2017-12-22T18:24:19.917Z,29.78
2017-12-22T18:26:51.461Z,36.90
2017-12-22T18:29:19.737Z,36.50
2017-12-22T18:31:48.050Z,40.52
2017-12-22T18:34:16.376Z,35.80
2017-12-22T18:36:44.682Z,25.14
2017-12-22T18:39:13.017Z,28.80
2017-12-22T18:41:41.316Z,31.30
2017-12-22T18:44:09.666Z,26.54
2017-12-22T18:46:37.923Z,27.58
2017-12-22T18:49:06.220Z,32.72
2017-12-22T18:51:34.540Z,30.28
2017-12-22T18:54:03.383Z,36.66
2017-12-22T18:56:32.547Z,35.82
2017-12-22T18:59:00.871Z,35.56
2017-12-22T19:01:29.165Z,84.24
2017-12-22T19:03:57.499Z,72.40
2017-12-22T19:06:25.832Z,95.58
2017-12-22T19:08:54.069Z,77.74
2017-12-22T19:11:22.383Z,93.86
2017-12-22T19:13:50.713Z,61.24
2017-12-22T19:16:19.006Z,54.24
2017-12-22T19:18:47.297Z,37.44
2017-12-22T19:21:15.626Z,33.70
2017-12-22T19:23:43.913Z,34.90
2017-12-22T19:26:12.218Z,34.52
2017-12-22T19:28:40.546Z,36.84
2017-12-22T19:31:08.781Z,39.12
2017-12-22T19:33:36.294Z,41.36
2017-12-22T19:36:04.603Z,54.80
2017-12-22T19:38:33.431Z,35.34
2017-12-22T19:41:02.386Z,36.70
2017-12-22T19:43:30.708Z,40.52
2017-12-22T19:45:58.990Z,41.30
2017-12-22T19:48:27.288Z,35.60
2017-12-22T19:50:55.560Z,41.10
2017-12-22T19:53:23.853Z,44.58
2017-12-22T19:55:52.185Z,31.12
2017-12-22T19:58:20.481Z,36.36
2017-12-22T20:00:48.809Z,30.06
2017-12-22T20:03:27.076Z,35.16
2017-12-22T20:05:55.414Z,36.90
2017-12-22T20:08:23.746Z,31.90
2017-12-22T20:10:52.035Z,32.50
2017-12-22T20:13:20.352Z,28.72
2017-12-22T20:15:48.703Z,36.06
2017-12-22T20:18:16.999Z,38.08
2017-12-22T20:20:45.344Z,35.80
2017-12-22T20:23:13.671Z,36.52
2017-12-22T20:25:41.974Z,37.86
2017-12-22T20:28:10.316Z,29.22
2017-12-22T20:30:38.666Z,37.64
2017-12-22T20:33:06.971Z,30.42
2017-12-22T20:35:35.286Z,41.42
2017-12-22T20:38:03.601Z,41.56
2017-12-22T20:40:32.706Z,40.10
2017-12-22T20:43:01.021Z,44.64
2017-12-22T20:45:29.378Z,39.86
2017-12-22T20:47:57.704Z,47.48
2017-12-22T20:50:26.015Z,38.68
2017-12-22T20:52:54.366Z,37.46
2017-12-22T20:55:22.679Z,36.98
2017-12-22T20:57:50.978Z,39.14
2017-12-22T21:00:19.315Z,39.22
2017-12-22T21:02:47.653Z,35.42
2017-12-22T21:05:15.960Z,37.12
2017-12-22T21:07:44.281Z,41.84
2017-12-22T21:10:12.618Z,40.12
2017-12-22T21:12:40.915Z,44.78
2017-12-22T21:15:12.622Z,52.52
2017-12-22T21:17:40.960Z,46.14
2017-12-22T21:20:09.265Z,50.68
2017-12-22T21:22:37.613Z,38.64
2017-12-22T21:25:05.925Z,51.12
2017-12-22T21:27:34.468Z,44.36
2017-12-22T21:30:03.970Z,51.40
2017-12-22T21:32:32.876Z,54.88
2017-12-22T21:35:01.850Z,54.56
2017-12-22T21:37:30.187Z,52.54
2017-12-22T21:40:00.413Z,53.48
2017-12-22T21:42:28.709Z,51.94
2017-12-22T21:44:57.042Z,33.82
2017-12-22T21:47:24.583Z,41.80
2017-12-22T21:49:52.895Z,52.50
2017-12-22T21:52:21.208Z,46.88
2017-12-22T21:54:49.506Z,48.06
2017-12-22T21:57:17.856Z,49.18
2017-12-22T21:59:46.171Z,52.48
2017-12-22T22:02:14.465Z,46.38
2017-12-22T22:04:42.795Z,47.96
2017-12-22T22:07:11.098Z,52.78
2017-12-22T22:09:39.436Z,63.12
2017-12-22T22:12:07.732Z,66.02
2017-12-22T22:14:36.056Z,59.20
2017-12-22T22:17:04.366Z,58.86
2017-12-22T22:19:33.878Z,51.98
2017-12-22T22:22:02.594Z,39.54
2017-12-22T22:24:30.887Z,52.38
2017-12-22T22:26:59.227Z,50.72
2017-12-22T22:29:27.522Z,49.46
2017-12-22T22:31:55.852Z,47.18
2017-12-22T22:34:24.150Z,41.68
2017-12-22T22:36:52.421Z,41.72
2017-12-22T22:39:20.757Z,41.06
2017-12-22T22:41:49.047Z,44.58
2017-12-22T22:44:17.374Z,46.58
2017-12-22T22:46:45.678Z,42.84
2017-12-22T22:49:14.031Z,43.02
2017-12-22T22:51:42.333Z,37.80
2017-12-22T22:54:10.630Z,40.80
2017-12-22T22:56:38.957Z,43.34
2017-12-22T22:59:07.264Z,46.08
2017-12-22T23:01:35.595Z,41.02
2017-12-22T23:04:03.894Z,39.46
2017-12-22T23:06:33.119Z,42.04
2017-12-22T23:09:01.825Z,37.62
2017-12-22T23:11:30.150Z,31.56
2017-12-22T23:13:58.459Z,37.88
2017-12-22T23:16:26.752Z,31.98
2017-12-22T23:18:55.072Z,31.84
2017-12-22T23:21:23.392Z,33.22
2017-12-22T23:23:51.644Z,30.64
2017-12-22T23:26:19.969Z,30.48
2017-12-22T23:28:48.276Z,38.20
2017-12-22T23:31:16.578Z,35.80
2017-12-22T23:33:44.901Z,42.20
2017-12-22T23:36:13.183Z,44.88
2017-12-22T23:38:41.446Z,36.20
2017-12-22T23:41:09.746Z,38.54
2017-12-22T23:43:38.022Z,37.56
2017-12-22T23:46:06.338Z,39.52
2017-12-22T23:48:34.592Z,35.40
2017-12-22T23:51:03.726Z,40.34
2017-12-22T23:53:33.042Z,47.62
2017-12-22T23:56:01.336Z,37.00
2017-12-22T23:58:29.677Z,38.52
